sensor_id;sensor_type;location;lat;lon;timestamp;temperature;humidity
44817;DHT22;30529;53.570;9.964;2023-01-23T00:00:54;3.70;99.90
44817;DHT22;30529;53.570;9.964;2023-01-23T00:03:20;3.80;99.90
44817;DHT22;30529;53.570;9.964;2023-01-23T00:05:58;3.80;99.90
44817;DHT22;30529;53.570;9.964;2023-01-23T00:08:24;3.80;99.90
44817;DHT22;30529;53.570;9.964;2023-01-23T00:10:50;3.80;99.90
44817;DHT22;30529;53.570;9.964;2023-01-23T00:13:17;3.70;99.90
44817;DHT22;30529;53.570;9.964;2023-01-23T00:15:43;3.80;99.90
44817;DHT22;30529;53.570;9.964;2023-01-23T00:18:09;3.80;99.90
44817;DHT22;30529;53.570;9.964;2023-01-23T00:20:39;3.80;99.90
44817;DHT22;30529;53.570;9.964;2023-01-23T00:23:05;3.80;99.90
44817;DHT22;30529;53.570;9.964;2023-01-23T00:25:35;3.80;99.90
44817;DHT22;30529;53.570;9.964;2023-01-23T00:28:01;3.80;99.90
44817;DHT22;30529;53.570;9.964;2023-01-23T00:30:28;3.80;99.90
44817;DHT22;30529;53.570;9.964;2023-01-23T00:32:54;3.80;99.90
44817;DHT22;30529;53.570;9.964;2023-01-23T00:35:20;3.80;99.90
44817;DHT22;30529;53.570;9.964;2023-01-23T00:37:46;3.80;99.90
44817;DHT22;30529;53.570;9.964;2023-01-23T00:40:12;3.80;99.90
44817;DHT22;30529;53.570;9.964;2023-01-23T00:42:38;3.80;99.90
44817;DHT22;30529;53.570;9.964;2023-01-23T00:45:05;3.80;99.90
44817;DHT22;30529;53.570;9.964;2023-01-23T00:47:31;3.80;99.90
44817;DHT22;30529;53.570;9.964;2023-01-23T00:49:57;3.80;99.90
44817;DHT22;30529;53.570;9.964;2023-01-23T00:52:25;3.90;99.90
44817;DHT22;30529;53.570;9.964;2023-01-23T00:54:51;3.80;99.90
44817;DHT22;30529;53.570;9.964;2023-01-23T00:57:17;3.80;99.90
44817;DHT22;30529;53.570;9.964;2023-01-23T00:59:42;3.80;99.90
44817;DHT22;30529;53.570;9.964;2023-01-23T01:02:08;3.70;99.90
44817;DHT22;30529;53.570;9.964;2023-01-23T01:04:34;3.70;99.90
44817;DHT22;30529;53.570;9.964;2023-01-23T01:07:00;3.70;99.90
44817;DHT22;30529;53.570;9.964;2023-01-23T01:09:26;3.70;99.90
44817;DHT22;30529;53.570;9.964;2023-01-23T01:11:52;3.60;99.90
44817;DHT22;30529;53.570;9.964;2023-01-23T01:14:18;3.70;99.90
44817;DHT22;30529;53.570;9.964;2023-01-23T01:16:44;3.60;99.90
44817;DHT22;30529;53.570;9.964;2023-01-23T01:19:13;3.60;99.90
44817;DHT22;30529;53.570;9.964;2023-01-23T01:21:39;3.60;99.90
44817;DHT22;30529;53.570;9.964;2023-01-23T01:24:07;3.60;99.90
44817;DHT22;30529;53.570;9.964;2023-01-23T01:26:34;3.70;99.90
44817;DHT22;30529;53.570;9.964;2023-01-23T01:29:01;3.70;99.90
44817;DHT22;30529;53.570;9.964;2023-01-23T01:31:27;3.50;99.90
44817;DHT22;30529;53.570;9.964;2023-01-23T01:33:53;3.30;99.90
44817;DHT22;30529;53.570;9.964;2023-01-23T01:36:20;3.20;99.90
44817;DHT22;30529;53.570;9.964;2023-01-23T01:38:47;3.20;99.90
44817;DHT22;30529;53.570;9.964;2023-01-23T01:41:13;3.20;99.90
44817;DHT22;30529;53.570;9.964;2023-01-23T01:43:44;3.30;99.90
44817;DHT22;30529;53.570;9.964;2023-01-23T01:49:04;3.30;99.90
44817;DHT22;30529;53.570;9.964;2023-01-23T01:51:44;3.30;99.90
44817;DHT22;30529;53.570;9.964;2023-01-23T01:54:24;3.30;99.90
44817;DHT22;30529;53.570;9.964;2023-01-23T01:56:54;3.30;99.90
44817;DHT22;30529;53.570;9.964;2023-01-23T01:59:25;3.20;99.90
44817;DHT22;30529;53.570;9.964;2023-01-23T02:01:58;3.10;99.90
44817;DHT22;30529;53.570;9.964;2023-01-23T02:04:35;3.20;99.90
44817;DHT22;30529;53.570;9.964;2023-01-23T02:07:06;3.10;99.90
44817;DHT22;30529;53.570;9.964;2023-01-23T02:09:33;3.10;99.90
44817;DHT22;30529;53.570;9.964;2023-01-23T02:12:00;3.10;99.90
44817;DHT22;30529;53.570;9.964;2023-01-23T02:14:27;3.20;99.90
44817;DHT22;30529;53.570;9.964;2023-01-23T02:16:55;3.20;99.90
44817;DHT22;30529;53.570;9.964;2023-01-23T02:28:01;3.30;99.90
44817;DHT22;30529;53.570;9.964;2023-01-23T02:30:35;3.40;99.90
44817;DHT22;30529;53.570;9.964;2023-01-23T02:33:41;3.30;99.90
44817;DHT22;30529;53.570;9.964;2023-01-23T02:36:02;3.20;99.90
44817;DHT22;30529;53.570;9.964;2023-01-23T02:41:44;3.30;99.90
44817;DHT22;30529;53.570;9.964;2023-01-23T02:44:21;3.30;99.90
44817;DHT22;30529;53.570;9.964;2023-01-23T02:47:04;3.30;99.90
44817;DHT22;30529;53.570;9.964;2023-01-23T02:49:42;3.30;99.90
44817;DHT22;30529;53.570;9.964;2023-01-23T02:52:10;3.30;99.90
44817;DHT22;30529;53.570;9.964;2023-01-23T02:54:44;3.30;99.90
44817;DHT22;30529;53.570;9.964;2023-01-23T02:57:19;3.30;99.90
44817;DHT22;30529;53.570;9.964;2023-01-23T02:59:52;3.40;99.90
44817;DHT22;30529;53.570;9.964;2023-01-23T03:02:45;3.40;99.90
44817;DHT22;30529;53.570;9.964;2023-01-23T03:05:23;3.40;99.90
44817;DHT22;30529;53.570;9.964;2023-01-23T03:07:58;3.40;99.90
44817;DHT22;30529;53.570;9.964;2023-01-23T03:10:31;3.40;99.90
44817;DHT22;30529;53.570;9.964;2023-01-23T03:13:02;3.30;99.90
44817;DHT22;30529;53.570;9.964;2023-01-23T03:15:39;3.30;99.90
44817;DHT22;30529;53.570;9.964;2023-01-23T03:18:15;3.30;99.90
44817;DHT22;30529;53.570;9.964;2023-01-23T03:20:59;3.30;99.90
44817;DHT22;30529;53.570;9.964;2023-01-23T03:23:28;3.20;99.90
44817;DHT22;30529;53.570;9.964;2023-01-23T03:26:04;3.30;99.90
44817;DHT22;30529;53.570;9.964;2023-01-23T03:28:35;3.20;99.90
44817;DHT22;30529;53.570;9.964;2023-01-23T03:31:21;3.20;99.90
44817;DHT22;30529;53.570;9.964;2023-01-23T03:33:48;3.20;99.90
44817;DHT22;30529;53.570;9.964;2023-01-23T03:36:22;3.10;99.90
44817;DHT22;30529;53.570;9.964;2023-01-23T03:38:57;3.10;99.90
44817;DHT22;30529;53.570;9.964;2023-01-23T03:41:46;3.10;99.90
44817;DHT22;30529;53.570;9.964;2023-01-23T03:44:18;3.10;99.90
44817;DHT22;30529;53.570;9.964;2023-01-23T03:46:55;3.20;99.90
44817;DHT22;30529;53.570;9.964;2023-01-23T03:49:30;3.20;99.90
44817;DHT22;30529;53.570;9.964;2023-01-23T03:52:08;3.20;99.90
44817;DHT22;30529;53.570;9.964;2023-01-23T03:54:39;3.20;99.90
44817;DHT22;30529;53.570;9.964;2023-01-23T03:57:16;3.10;99.90
44817;DHT22;30529;53.570;9.964;2023-01-23T03:59:43;3.10;99.90
44817;DHT22;30529;53.570;9.964;2023-01-23T04:02:09;3.20;99.90
44817;DHT22;30529;53.570;9.964;2023-01-23T04:04:35;3.20;99.90
44817;DHT22;30529;53.570;9.964;2023-01-23T04:07:02;3.20;99.90
44817;DHT22;30529;53.570;9.964;2023-01-23T04:09:28;3.20;99.90
44817;DHT22;30529;53.570;9.964;2023-01-23T04:11:55;3.30;99.90
44817;DHT22;30529;53.570;9.964;2023-01-23T04:14:23;3.10;99.90
44817;DHT22;30529;53.570;9.964;2023-01-23T04:16:49;3.20;99.90
44817;DHT22;30529;53.570;9.964;2023-01-23T04:19:16;3.10;99.90
44817;DHT22;30529;53.570;9.964;2023-01-23T04:21:45;3.10;99.90
44817;DHT22;30529;53.570;9.964;2023-01-23T04:24:11;3.00;99.90
44817;DHT22;30529;53.570;9.964;2023-01-23T04:26:37;3.10;99.90
44817;DHT22;30529;53.570;9.964;2023-01-23T04:29:04;3.10;99.90
44817;DHT22;30529;53.570;9.964;2023-01-23T04:31:34;3.10;99.90
44817;DHT22;30529;53.570;9.964;2023-01-23T04:34:00;3.10;99.90
44817;DHT22;30529;53.570;9.964;2023-01-23T04:36:26;3.10;99.90
44817;DHT22;30529;53.570;9.964;2023-01-23T04:38:52;3.10;99.90
44817;DHT22;30529;53.570;9.964;2023-01-23T04:41:22;3.00;99.90
44817;DHT22;30529;53.570;9.964;2023-01-23T04:43:48;3.00;99.90
44817;DHT22;30529;53.570;9.964;2023-01-23T04:46:14;3.00;99.90
44817;DHT22;30529;53.570;9.964;2023-01-23T04:48:40;3.10;99.90
44817;DHT22;30529;53.570;9.964;2023-01-23T04:51:06;3.10;99.90
44817;DHT22;30529;53.570;9.964;2023-01-23T04:53:32;3.20;99.90
44817;DHT22;30529;53.570;9.964;2023-01-23T04:55:59;3.10;99.90
44817;DHT22;30529;53.570;9.964;2023-01-23T04:58:25;3.20;99.90
44817;DHT22;30529;53.570;9.964;2023-01-23T05:00:51;3.30;99.90
44817;DHT22;30529;53.570;9.964;2023-01-23T05:03:17;3.30;99.90
44817;DHT22;30529;53.570;9.964;2023-01-23T05:05:43;3.30;99.90
44817;DHT22;30529;53.570;9.964;2023-01-23T05:08:10;3.30;99.90
44817;DHT22;30529;53.570;9.964;2023-01-23T05:10:36;3.40;99.90
44817;DHT22;30529;53.570;9.964;2023-01-23T05:13:02;3.40;99.90
44817;DHT22;30529;53.570;9.964;2023-01-23T05:15:28;3.50;99.90
44817;DHT22;30529;53.570;9.964;2023-01-23T05:17:54;3.40;99.90
44817;DHT22;30529;53.570;9.964;2023-01-23T05:20:20;3.40;99.90
44817;DHT22;30529;53.570;9.964;2023-01-23T05:22:49;3.30;99.90
44817;DHT22;30529;53.570;9.964;2023-01-23T05:25:22;3.30;99.90
44817;DHT22;30529;53.570;9.964;2023-01-23T05:27:48;3.30;99.90
44817;DHT22;30529;53.570;9.964;2023-01-23T05:30:15;3.30;99.90
44817;DHT22;30529;53.570;9.964;2023-01-23T05:32:41;3.20;99.90
44817;DHT22;30529;53.570;9.964;2023-01-23T05:35:08;3.20;99.90
44817;DHT22;30529;53.570;9.964;2023-01-23T05:37:35;3.30;99.90
44817;DHT22;30529;53.570;9.964;2023-01-23T05:40:03;3.20;99.90
44817;DHT22;30529;53.570;9.964;2023-01-23T05:42:29;3.20;99.90
44817;DHT22;30529;53.570;9.964;2023-01-23T05:44:55;3.30;99.90
44817;DHT22;30529;53.570;9.964;2023-01-23T05:47:21;3.30;99.90
44817;DHT22;30529;53.570;9.964;2023-01-23T05:49:46;3.30;99.90
44817;DHT22;30529;53.570;9.964;2023-01-23T05:52:12;3.30;99.90
44817;DHT22;30529;53.570;9.964;2023-01-23T05:54:38;3.30;99.90
44817;DHT22;30529;53.570;9.964;2023-01-23T05:57:04;3.40;99.90
44817;DHT22;30529;53.570;9.964;2023-01-23T05:59:30;3.40;99.90
44817;DHT22;30529;53.570;9.964;2023-01-23T06:01:56;3.30;99.90
44817;DHT22;30529;53.570;9.964;2023-01-23T06:04:22;3.30;99.90
44817;DHT22;30529;53.570;9.964;2023-01-23T06:06:48;3.30;99.90
44817;DHT22;30529;53.570;9.964;2023-01-23T06:09:14;3.30;99.90
44817;DHT22;30529;53.570;9.964;2023-01-23T06:11:40;3.30;99.90
44817;DHT22;30529;53.570;9.964;2023-01-23T06:14:06;3.20;99.90
44817;DHT22;30529;53.570;9.964;2023-01-23T06:16:32;3.30;99.90
44817;DHT22;30529;53.570;9.964;2023-01-23T06:18:58;3.30;99.90
44817;DHT22;30529;53.570;9.964;2023-01-23T06:21:24;3.30;99.90
44817;DHT22;30529;53.570;9.964;2023-01-23T06:23:50;3.20;99.90
44817;DHT22;30529;53.570;9.964;2023-01-23T06:26:16;3.30;99.90
44817;DHT22;30529;53.570;9.964;2023-01-23T06:28:42;3.30;99.90
44817;DHT22;30529;53.570;9.964;2023-01-23T06:31:08;3.30;99.90
44817;DHT22;30529;53.570;9.964;2023-01-23T06:33:35;3.30;99.90
44817;DHT22;30529;53.570;9.964;2023-01-23T06:36:04;3.30;99.90
44817;DHT22;30529;53.570;9.964;2023-01-23T06:38:31;3.30;99.90
44817;DHT22;30529;53.570;9.964;2023-01-23T06:40:57;3.30;99.90
44817;DHT22;30529;53.570;9.964;2023-01-23T06:43:24;3.30;99.90
44817;DHT22;30529;53.570;9.964;2023-01-23T06:45:50;3.30;99.90
44817;DHT22;30529;53.570;9.964;2023-01-23T06:48:16;3.40;99.90
44817;DHT22;30529;53.570;9.964;2023-01-23T06:50:43;3.40;99.90
44817;DHT22;30529;53.570;9.964;2023-01-23T06:53:13;3.50;99.90
44817;DHT22;30529;53.570;9.964;2023-01-23T06:55:39;3.40;99.90
44817;DHT22;30529;53.570;9.964;2023-01-23T06:58:06;3.40;99.90
44817;DHT22;30529;53.570;9.964;2023-01-23T07:00:32;3.40;99.90
44817;DHT22;30529;53.570;9.964;2023-01-23T07:03:01;3.40;99.90
44817;DHT22;30529;53.570;9.964;2023-01-23T07:05:31;3.40;99.90
44817;DHT22;30529;53.570;9.964;2023-01-23T07:07:57;3.50;99.90
44817;DHT22;30529;53.570;9.964;2023-01-23T07:10:23;3.40;99.90
44817;DHT22;30529;53.570;9.964;2023-01-23T07:12:50;3.30;99.90
44817;DHT22;30529;53.570;9.964;2023-01-23T07:15:16;3.40;99.90
44817;DHT22;30529;53.570;9.964;2023-01-23T07:17:42;3.30;99.90
44817;DHT22;30529;53.570;9.964;2023-01-23T07:20:09;3.40;99.90
44817;DHT22;30529;53.570;9.964;2023-01-23T07:22:35;3.40;99.90
44817;DHT22;30529;53.570;9.964;2023-01-23T07:25:01;3.40;99.90
44817;DHT22;30529;53.570;9.964;2023-01-23T07:27:27;3.40;99.90
44817;DHT22;30529;53.570;9.964;2023-01-23T07:29:52;3.40;99.90
44817;DHT22;30529;53.570;9.964;2023-01-23T07:32:18;3.50;99.90
44817;DHT22;30529;53.570;9.964;2023-01-23T07:34:44;3.50;99.90
44817;DHT22;30529;53.570;9.964;2023-01-23T07:37:10;3.50;99.90
44817;DHT22;30529;53.570;9.964;2023-01-23T07:39:36;3.40;99.90
44817;DHT22;30529;53.570;9.964;2023-01-23T07:42:02;3.50;99.90
44817;DHT22;30529;53.570;9.964;2023-01-23T07:44:28;3.50;99.90
44817;DHT22;30529;53.570;9.964;2023-01-23T07:46:55;3.50;99.90
44817;DHT22;30529;53.570;9.964;2023-01-23T07:49:21;3.60;99.90
44817;DHT22;30529;53.570;9.964;2023-01-23T07:51:47;3.60;99.90
44817;DHT22;30529;53.570;9.964;2023-01-23T07:54:13;3.60;99.90
44817;DHT22;30529;53.570;9.964;2023-01-23T07:56:39;3.60;99.90
44817;DHT22;30529;53.570;9.964;2023-01-23T07:59:05;3.70;99.90
44817;DHT22;30529;53.570;9.964;2023-01-23T08:01:31;3.60;99.90
44817;DHT22;30529;53.570;9.964;2023-01-23T08:03:57;3.60;99.90
44817;DHT22;30529;53.570;9.964;2023-01-23T08:06:23;3.60;99.90
44817;DHT22;30529;53.570;9.964;2023-01-23T08:08:49;3.70;99.90
44817;DHT22;30529;53.570;9.964;2023-01-23T08:11:15;3.70;99.90
44817;DHT22;30529;53.570;9.964;2023-01-23T08:13:42;3.70;99.90
44817;DHT22;30529;53.570;9.964;2023-01-23T08:16:08;3.80;99.90
44817;DHT22;30529;53.570;9.964;2023-01-23T08:18:34;3.70;99.90
44817;DHT22;30529;53.570;9.964;2023-01-23T08:21:01;3.80;99.90
44817;DHT22;30529;53.570;9.964;2023-01-23T08:23:32;3.80;99.90
44817;DHT22;30529;53.570;9.964;2023-01-23T08:26:00;3.70;99.90
44817;DHT22;30529;53.570;9.964;2023-01-23T08:28:26;3.70;99.90
44817;DHT22;30529;53.570;9.964;2023-01-23T08:30:53;3.70;99.90
44817;DHT22;30529;53.570;9.964;2023-01-23T08:33:20;3.70;99.90
44817;DHT22;30529;53.570;9.964;2023-01-23T08:35:54;3.70;99.90
44817;DHT22;30529;53.570;9.964;2023-01-23T08:38:21;3.60;99.90
44817;DHT22;30529;53.570;9.964;2023-01-23T08:40:49;3.60;99.90
44817;DHT22;30529;53.570;9.964;2023-01-23T08:43:19;3.70;99.90
44817;DHT22;30529;53.570;9.964;2023-01-23T08:45:50;3.80;99.90
44817;DHT22;30529;53.570;9.964;2023-01-23T08:48:17;3.90;99.90
44817;DHT22;30529;53.570;9.964;2023-01-23T08:50:43;3.90;99.90
44817;DHT22;30529;53.570;9.964;2023-01-23T08:53:10;3.90;99.90
44817;DHT22;30529;53.570;9.964;2023-01-23T08:55:36;4.00;99.90
44817;DHT22;30529;53.570;9.964;2023-01-23T08:58:05;4.00;99.90
44817;DHT22;30529;53.570;9.964;2023-01-23T09:00:31;4.00;99.90
44817;DHT22;30529;53.570;9.964;2023-01-23T09:03:01;3.90;99.90
44817;DHT22;30529;53.570;9.964;2023-01-23T09:05:29;4.00;99.90
44817;DHT22;30529;53.570;9.964;2023-01-23T09:07:56;4.00;99.90
44817;DHT22;30529;53.570;9.964;2023-01-23T09:10:22;4.00;99.90
44817;DHT22;30529;53.570;9.964;2023-01-23T09:12:52;4.00;99.90
44817;DHT22;30529;53.570;9.964;2023-01-23T09:15:19;4.00;99.90
44817;DHT22;30529;53.570;9.964;2023-01-23T09:17:48;4.10;99.90
44817;DHT22;30529;53.570;9.964;2023-01-23T09:20:14;4.10;99.90
44817;DHT22;30529;53.570;9.964;2023-01-23T09:22:40;4.10;99.90
44817;DHT22;30529;53.570;9.964;2023-01-23T09:25:07;4.10;99.90
44817;DHT22;30529;53.570;9.964;2023-01-23T09:27:33;4.00;99.90
44817;DHT22;30529;53.570;9.964;2023-01-23T09:29:59;4.00;99.90
44817;DHT22;30529;53.570;9.964;2023-01-23T09:32:25;4.00;99.90
44817;DHT22;30529;53.570;9.964;2023-01-23T09:34:51;4.10;99.90
44817;DHT22;30529;53.570;9.964;2023-01-23T09:37:19;4.20;99.90
44817;DHT22;30529;53.570;9.964;2023-01-23T09:39:45;4.20;99.90
44817;DHT22;30529;53.570;9.964;2023-01-23T09:42:21;4.20;99.90
44817;DHT22;30529;53.570;9.964;2023-01-23T09:44:56;4.30;99.90
44817;DHT22;30529;53.570;9.964;2023-01-23T09:47:43;4.30;99.90
44817;DHT22;30529;53.570;9.964;2023-01-23T09:52:48;4.50;99.90
44817;DHT22;30529;53.570;9.964;2023-01-23T09:55:48;4.50;99.90
44817;DHT22;30529;53.570;9.964;2023-01-23T09:58:24;4.60;99.90
44817;DHT22;30529;53.570;9.964;2023-01-23T10:00:52;4.60;99.90
44817;DHT22;30529;53.570;9.964;2023-01-23T10:03:19;4.50;99.90
44817;DHT22;30529;53.570;9.964;2023-01-23T10:11:47;4.60;99.90
44817;DHT22;30529;53.570;9.964;2023-01-23T10:17:31;4.80;99.90
44817;DHT22;30529;53.570;9.964;2023-01-23T10:20:32;4.80;99.90
44817;DHT22;30529;53.570;9.964;2023-01-23T10:25:55;4.90;99.90
44817;DHT22;30529;53.570;9.964;2023-01-23T10:28:35;5.00;99.90
44817;DHT22;30529;53.570;9.964;2023-01-23T10:31:23;4.90;99.90
44817;DHT22;30529;53.570;9.964;2023-01-23T10:34:59;4.80;99.90
44817;DHT22;30529;53.570;9.964;2023-01-23T10:39:50;4.90;99.90
44817;DHT22;30529;53.570;9.964;2023-01-23T10:42:21;4.90;99.90
44817;DHT22;30529;53.570;9.964;2023-01-23T10:44:48;5.00;99.90
44817;DHT22;30529;53.570;9.964;2023-01-23T10:47:28;5.00;99.90
44817;DHT22;30529;53.570;9.964;2023-01-23T10:49:55;5.10;99.90
44817;DHT22;30529;53.570;9.964;2023-01-23T10:52:32;5.00;99.90
44817;DHT22;30529;53.570;9.964;2023-01-23T10:54:59;5.00;99.90
44817;DHT22;30529;53.570;9.964;2023-01-23T10:57:28;5.10;99.90
44817;DHT22;30529;53.570;9.964;2023-01-23T10:59:58;4.90;99.90
44817;DHT22;30529;53.570;9.964;2023-01-23T11:02:29;5.00;99.90
44817;DHT22;30529;53.570;9.964;2023-01-23T11:04:57;5.00;99.90
44817;DHT22;30529;53.570;9.964;2023-01-23T11:07:36;5.00;99.90
44817;DHT22;30529;53.570;9.964;2023-01-23T11:10:17;5.00;99.90
44817;DHT22;30529;53.570;9.964;2023-01-23T11:12:53;5.00;99.90
44817;DHT22;30529;53.570;9.964;2023-01-23T11:15:23;5.00;99.90
44817;DHT22;30529;53.570;9.964;2023-01-23T11:17:51;4.90;99.90
44817;DHT22;30529;53.570;9.964;2023-01-23T11:20:38;4.90;99.90
44817;DHT22;30529;53.570;9.964;2023-01-23T11:25:37;4.90;99.90
44817;DHT22;30529;53.570;9.964;2023-01-23T11:28:32;5.00;99.90
44817;DHT22;30529;53.570;9.964;2023-01-23T11:31:19;5.00;99.90
44817;DHT22;30529;53.570;9.964;2023-01-23T11:34:04;4.90;99.90
44817;DHT22;30529;53.570;9.964;2023-01-23T11:36:58;5.00;99.90
44817;DHT22;30529;53.570;9.964;2023-01-23T11:39:44;5.10;99.90
44817;DHT22;30529;53.570;9.964;2023-01-23T11:42:14;5.10;99.90
44817;DHT22;30529;53.570;9.964;2023-01-23T11:44:41;5.10;99.90
44817;DHT22;30529;53.570;9.964;2023-01-23T11:47:34;5.20;99.90
44817;DHT22;30529;53.570;9.964;2023-01-23T11:59:19;5.00;99.90
44817;DHT22;30529;53.570;9.964;2023-01-23T12:02:22;5.00;99.90
44817;DHT22;30529;53.570;9.964;2023-01-23T12:07:56;4.90;99.90
44817;DHT22;30529;53.570;9.964;2023-01-23T12:16:48;5.10;99.90
44817;DHT22;30529;53.570;9.964;2023-01-23T12:22:14;5.20;99.90
44817;DHT22;30529;53.570;9.964;2023-01-23T12:25:03;5.20;99.90
44817;DHT22;30529;53.570;9.964;2023-01-23T12:27:42;5.20;99.90
44817;DHT22;30529;53.570;9.964;2023-01-23T12:30:21;5.20;99.90
44817;DHT22;30529;53.570;9.964;2023-01-23T12:36:12;5.30;99.90
44817;DHT22;30529;53.570;9.964;2023-01-23T12:41:41;5.30;99.90
44817;DHT22;30529;53.570;9.964;2023-01-23T12:44:23;5.20;99.90
44817;DHT22;30529;53.570;9.964;2023-01-23T12:46:57;5.30;99.90
44817;DHT22;30529;53.570;9.964;2023-01-23T12:49:37;5.30;99.90
44817;DHT22;30529;53.570;9.964;2023-01-23T12:54:47;5.20;99.90
44817;DHT22;30529;53.570;9.964;2023-01-23T12:57:15;5.10;99.90
44817;DHT22;30529;53.570;9.964;2023-01-23T13:02:52;5.10;99.90
44817;DHT22;30529;53.570;9.964;2023-01-23T13:05:39;5.10;99.90
44817;DHT22;30529;53.570;9.964;2023-01-23T13:08:31;5.10;99.90
44817;DHT22;30529;53.570;9.964;2023-01-23T13:11:23;5.10;99.90
44817;DHT22;30529;53.570;9.964;2023-01-23T13:16:58;5.00;99.90
44817;DHT22;30529;53.570;9.964;2023-01-23T13:19:29;5.00;99.90
44817;DHT22;30529;53.570;9.964;2023-01-23T13:24:47;5.10;99.90
44817;DHT22;30529;53.570;9.964;2023-01-23T13:27:51;5.10;99.90
44817;DHT22;30529;53.570;9.964;2023-01-23T13:43:50;5.30;99.90
44817;DHT22;30529;53.570;9.964;2023-01-23T13:46:43;5.30;99.90
44817;DHT22;30529;53.570;9.964;2023-01-23T13:49:32;5.30;99.90
44817;DHT22;30529;53.570;9.964;2023-01-23T13:52:22;5.30;99.90
44817;DHT22;30529;53.570;9.964;2023-01-23T13:55:17;5.30;99.90
44817;DHT22;30529;53.570;9.964;2023-01-23T13:58:04;5.40;99.90
44817;DHT22;30529;53.570;9.964;2023-01-23T14:00:33;5.30;99.90
44817;DHT22;30529;53.570;9.964;2023-01-23T14:03:29;5.30;99.90
44817;DHT22;30529;53.570;9.964;2023-01-23T14:06:33;5.20;99.90
44817;DHT22;30529;53.570;9.964;2023-01-23T14:09:03;5.00;99.90
44817;DHT22;30529;53.570;9.964;2023-01-23T14:11:37;5.00;99.90
44817;DHT22;30529;53.570;9.964;2023-01-23T14:14:04;4.90;99.90
44817;DHT22;30529;53.570;9.964;2023-01-23T14:16:49;5.00;99.90
44817;DHT22;30529;53.570;9.964;2023-01-23T14:19:26;4.90;99.90
44817;DHT22;30529;53.570;9.964;2023-01-23T14:21:55;4.90;99.90
44817;DHT22;30529;53.570;9.964;2023-01-23T14:24:27;4.90;99.90
44817;DHT22;30529;53.570;9.964;2023-01-23T14:27:07;4.90;99.90
44817;DHT22;30529;53.570;9.964;2023-01-23T14:29:34;4.90;99.90
44817;DHT22;30529;53.570;9.964;2023-01-23T14:32:01;4.90;99.90
44817;DHT22;30529;53.570;9.964;2023-01-23T14:34:27;4.90;99.90
44817;DHT22;30529;53.570;9.964;2023-01-23T14:37:04;4.80;99.90
44817;DHT22;30529;53.570;9.964;2023-01-23T14:39:33;4.80;99.90
44817;DHT22;30529;53.570;9.964;2023-01-23T14:42:01;4.80;99.90
44817;DHT22;30529;53.570;9.964;2023-01-23T14:44:41;4.70;99.90
44817;DHT22;30529;53.570;9.964;2023-01-23T14:47:39;4.70;99.90
44817;DHT22;30529;53.570;9.964;2023-01-23T14:50:15;4.80;99.90
44817;DHT22;30529;53.570;9.964;2023-01-23T14:52:42;4.80;99.90
44817;DHT22;30529;53.570;9.964;2023-01-23T14:55:23;4.70;99.90
44817;DHT22;30529;53.570;9.964;2023-01-23T14:57:50;4.70;99.90
44817;DHT22;30529;53.570;9.964;2023-01-23T15:00:18;4.70;99.90
44817;DHT22;30529;53.570;9.964;2023-01-23T15:02:46;4.80;99.90
44817;DHT22;30529;53.570;9.964;2023-01-23T15:05:21;4.70;99.90
44817;DHT22;30529;53.570;9.964;2023-01-23T15:12:56;4.80;99.90
44817;DHT22;30529;53.570;9.964;2023-01-23T15:15:24;4.80;99.90
44817;DHT22;30529;53.570;9.964;2023-01-23T15:17:52;4.80;99.90
44817;DHT22;30529;53.570;9.964;2023-01-23T15:20:34;4.80;99.90
44817;DHT22;30529;53.570;9.964;2023-01-23T15:25:44;4.70;99.90
44817;DHT22;30529;53.570;9.964;2023-01-23T15:31:32;4.70;99.90
44817;DHT22;30529;53.570;9.964;2023-01-23T15:36:59;4.70;99.90
44817;DHT22;30529;53.570;9.964;2023-01-23T15:44:43;4.70;99.90
44817;DHT22;30529;53.570;9.964;2023-01-23T15:47:09;4.70;99.90
44817;DHT22;30529;53.570;9.964;2023-01-23T15:49:37;4.60;99.90
44817;DHT22;30529;53.570;9.964;2023-01-23T15:54:54;4.70;99.90
44817;DHT22;30529;53.570;9.964;2023-01-23T15:57:22;4.70;99.90
44817;DHT22;30529;53.570;9.964;2023-01-23T15:59:47;4.70;99.90
44817;DHT22;30529;53.570;9.964;2023-01-23T16:02:19;4.80;99.90
44817;DHT22;30529;53.570;9.964;2023-01-23T16:04:46;4.80;99.90
44817;DHT22;30529;53.570;9.964;2023-01-23T16:07:26;4.80;99.90
44817;DHT22;30529;53.570;9.964;2023-01-23T16:09:54;4.70;99.90
44817;DHT22;30529;53.570;9.964;2023-01-23T16:12:26;4.70;99.90
44817;DHT22;30529;53.570;9.964;2023-01-23T16:14:52;4.70;99.90
44817;DHT22;30529;53.570;9.964;2023-01-23T16:17:19;4.70;99.90
44817;DHT22;30529;53.570;9.964;2023-01-23T16:19:45;4.80;99.90
44817;DHT22;30529;53.570;9.964;2023-01-23T16:22:21;4.80;99.90
44817;DHT22;30529;53.570;9.964;2023-01-23T16:24:48;4.70;99.90
44817;DHT22;30529;53.570;9.964;2023-01-23T16:27:17;4.80;99.90
44817;DHT22;30529;53.570;9.964;2023-01-23T16:29:43;4.80;99.90
44817;DHT22;30529;53.570;9.964;2023-01-23T16:32:10;4.80;99.90
44817;DHT22;30529;53.570;9.964;2023-01-23T16:34:36;4.80;99.90
44817;DHT22;30529;53.570;9.964;2023-01-23T16:37:02;4.80;99.90
44817;DHT22;30529;53.570;9.964;2023-01-23T16:39:32;4.70;99.90
44817;DHT22;30529;53.570;9.964;2023-01-23T16:41:58;4.70;99.90
44817;DHT22;30529;53.570;9.964;2023-01-23T16:44:25;4.60;99.90
44817;DHT22;30529;53.570;9.964;2023-01-23T16:46:52;4.60;99.90
44817;DHT22;30529;53.570;9.964;2023-01-23T16:49:19;4.60;99.90
44817;DHT22;30529;53.570;9.964;2023-01-23T16:51:57;4.60;99.90
44817;DHT22;30529;53.570;9.964;2023-01-23T16:54:28;4.60;99.90
44817;DHT22;30529;53.570;9.964;2023-01-23T16:56:54;4.60;99.90
44817;DHT22;30529;53.570;9.964;2023-01-23T16:59:34;4.70;99.90
44817;DHT22;30529;53.570;9.964;2023-01-23T17:02:21;4.70;99.90
44817;DHT22;30529;53.570;9.964;2023-01-23T17:04:47;4.70;99.90
44817;DHT22;30529;53.570;9.964;2023-01-23T17:07:15;4.60;99.90
44817;DHT22;30529;53.570;9.964;2023-01-23T17:09:42;4.60;99.90
44817;DHT22;30529;53.570;9.964;2023-01-23T17:12:14;4.60;99.90
44817;DHT22;30529;53.570;9.964;2023-01-23T17:14:41;4.50;99.90
44817;DHT22;30529;53.570;9.964;2023-01-23T17:17:13;4.40;99.90
44817;DHT22;30529;53.570;9.964;2023-01-23T17:19:40;4.40;99.90
44817;DHT22;30529;53.570;9.964;2023-01-23T17:22:23;4.50;99.90
44817;DHT22;30529;53.570;9.964;2023-01-23T17:24:50;4.60;99.90
44817;DHT22;30529;53.570;9.964;2023-01-23T17:27:16;4.70;99.90
44817;DHT22;30529;53.570;9.964;2023-01-23T17:29:42;4.70;99.90
44817;DHT22;30529;53.570;9.964;2023-01-23T17:32:27;4.70;99.90
44817;DHT22;30529;53.570;9.964;2023-01-23T17:34:54;4.70;99.90
44817;DHT22;30529;53.570;9.964;2023-01-23T17:37:21;4.80;99.90
44817;DHT22;30529;53.570;9.964;2023-01-23T17:39:48;4.70;99.90
44817;DHT22;30529;53.570;9.964;2023-01-23T17:42:14;4.80;99.90
44817;DHT22;30529;53.570;9.964;2023-01-23T17:44:40;4.70;99.90
44817;DHT22;30529;53.570;9.964;2023-01-23T17:47:10;4.70;99.90
44817;DHT22;30529;53.570;9.964;2023-01-23T17:49:37;4.70;99.90
44817;DHT22;30529;53.570;9.964;2023-01-23T17:52:03;4.70;99.90
44817;DHT22;30529;53.570;9.964;2023-01-23T17:54:29;4.70;99.90
44817;DHT22;30529;53.570;9.964;2023-01-23T17:56:57;4.80;99.90